sensor_id;sensor_type;location;lat;lon;timestamp;P1;durP1;ratioP1;P2;durP2;ratioP2
27209;SDS011;14721;42.668;23.386;2023-03-13T00:01:10;4.03;;;2.40;;
27209;SDS011;14721;42.668;23.386;2023-03-13T00:03:58;6.57;;;3.40;;
27209;SDS011;14721;42.668;23.386;2023-03-13T00:06:25;6.33;;;3.20;;
27209;SDS011;14721;42.668;23.386;2023-03-13T00:08:53;4.23;;;2.87;;
27209;SDS011;14721;42.668;23.386;2023-03-13T00:11:19;6.73;;;2.90;;
27209;SDS011;14721;42.668;23.386;2023-03-13T00:13:44;6.60;;;3.63;;
27209;SDS011;14721;42.668;23.386;2023-03-13T00:16:11;5.07;;;2.83;;
27209;SDS011;14721;42.668;23.386;2023-03-13T00:18:43;5.60;;;2.53;;
27209;SDS011;14721;42.668;23.386;2023-03-13T00:21:10;6.63;;;2.70;;
27209;SDS011;14721;42.668;23.386;2023-03-13T00:23:36;4.97;;;2.43;;
27209;SDS011;14721;42.668;23.386;2023-03-13T00:26:06;4.30;;;2.70;;
27209;SDS011;14721;42.668;23.386;2023-03-13T00:28:34;6.07;;;2.37;;
27209;SDS011;14721;42.668;23.386;2023-03-13T00:31:01;4.53;;;2.73;;
27209;SDS011;14721;42.668;23.386;2023-03-13T00:33:32;5.57;;;2.73;;
27209;SDS011;14721;42.668;23.386;2023-03-13T00:36:09;4.60;;;2.80;;
27209;SDS011;14721;42.668;23.386;2023-03-13T00:38:40;5.60;;;3.30;;
27209;SDS011;14721;42.668;23.386;2023-03-13T00:41:21;7.00;;;3.10;;
27209;SDS011;14721;42.668;23.386;2023-03-13T00:44:29;6.83;;;2.77;;
27209;SDS011;14721;42.668;23.386;2023-03-13T00:46:55;5.77;;;2.50;;
27209;SDS011;14721;42.668;23.386;2023-03-13T00:49:20;6.43;;;2.97;;
27209;SDS011;14721;42.668;23.386;2023-03-13T00:51:46;6.97;;;3.23;;
27209;SDS011;14721;42.668;23.386;2023-03-13T00:54:11;5.93;;;3.37;;
27209;SDS011;14721;42.668;23.386;2023-03-13T00:56:37;7.63;;;3.53;;
27209;SDS011;14721;42.668;23.386;2023-03-13T00:59:02;7.67;;;3.10;;
27209;SDS011;14721;42.668;23.386;2023-03-13T01:01:29;5.70;;;2.73;;
27209;SDS011;14721;42.668;23.386;2023-03-13T01:04:00;5.13;;;2.43;;
27209;SDS011;14721;42.668;23.386;2023-03-13T01:06:29;6.87;;;3.23;;
27209;SDS011;14721;42.668;23.386;2023-03-13T01:08:56;5.70;;;3.53;;
27209;SDS011;14721;42.668;23.386;2023-03-13T01:11:26;6.20;;;3.77;;
27209;SDS011;14721;42.668;23.386;2023-03-13T01:13:54;6.43;;;3.17;;
27209;SDS011;14721;42.668;23.386;2023-03-13T01:16:21;6.73;;;3.40;;
27209;SDS011;14721;42.668;23.386;2023-03-13T01:18:49;6.73;;;3.07;;
27209;SDS011;14721;42.668;23.386;2023-03-13T01:21:19;5.97;;;3.47;;
27209;SDS011;14721;42.668;23.386;2023-03-13T01:23:46;5.70;;;2.93;;
27209;SDS011;14721;42.668;23.386;2023-03-13T01:26:13;5.53;;;2.93;;
27209;SDS011;14721;42.668;23.386;2023-03-13T01:28:40;6.60;;;3.00;;
27209;SDS011;14721;42.668;23.386;2023-03-13T01:31:13;6.60;;;3.03;;
27209;SDS011;14721;42.668;23.386;2023-03-13T01:33:45;6.77;;;3.03;;
27209;SDS011;14721;42.668;23.386;2023-03-13T01:36:12;5.47;;;3.20;;
27209;SDS011;14721;42.668;23.386;2023-03-13T01:38:38;5.90;;;3.40;;
27209;SDS011;14721;42.668;23.386;2023-03-13T01:41:04;6.07;;;3.60;;
27209;SDS011;14721;42.668;23.386;2023-03-13T01:43:32;6.57;;;3.17;;
27209;SDS011;14721;42.668;23.386;2023-03-13T01:48:44;6.83;;;3.90;;
27209;SDS011;14721;42.668;23.386;2023-03-13T01:51:19;7.20;;;4.03;;
27209;SDS011;14721;42.668;23.386;2023-03-13T01:56:39;10.63;;;4.63;;
27209;SDS011;14721;42.668;23.386;2023-03-13T01:59:07;6.77;;;3.93;;
27209;SDS011;14721;42.668;23.386;2023-03-13T02:01:37;11.77;;;4.53;;
27209;SDS011;14721;42.668;23.386;2023-03-13T02:04:05;8.47;;;5.23;;
27209;SDS011;14721;42.668;23.386;2023-03-13T02:06:32;7.83;;;4.47;;
27209;SDS011;14721;42.668;23.386;2023-03-13T02:09:04;10.00;;;5.50;;
27209;SDS011;14721;42.668;23.386;2023-03-13T02:11:40;18.90;;;5.60;;
27209;SDS011;14721;42.668;23.386;2023-03-13T02:14:11;9.77;;;4.63;;
27209;SDS011;14721;42.668;23.386;2023-03-13T02:16:37;9.60;;;4.87;;
27209;SDS011;14721;42.668;23.386;2023-03-13T02:19:07;11.73;;;6.20;;
27209;SDS011;14721;42.668;23.386;2023-03-13T02:22:16;11.10;;;5.67;;
27209;SDS011;14721;42.668;23.386;2023-03-13T02:27:44;7.93;;;4.37;;
27209;SDS011;14721;42.668;23.386;2023-03-13T02:30:11;10.07;;;4.57;;
27209;SDS011;14721;42.668;23.386;2023-03-13T02:32:39;11.03;;;4.27;;
27209;SDS011;14721;42.668;23.386;2023-03-13T02:35:06;7.53;;;4.83;;
27209;SDS011;14721;42.668;23.386;2023-03-13T02:37:35;9.07;;;4.80;;
27209;SDS011;14721;42.668;23.386;2023-03-13T02:40:03;9.70;;;4.37;;
27209;SDS011;14721;42.668;23.386;2023-03-13T02:42:39;10.90;;;5.50;;
27209;SDS011;14721;42.668;23.386;2023-03-13T02:45:07;12.43;;;5.10;;
27209;SDS011;14721;42.668;23.386;2023-03-13T02:47:34;11.73;;;5.27;;
27209;SDS011;14721;42.668;23.386;2023-03-13T02:49:59;12.90;;;4.60;;
27209;SDS011;14721;42.668;23.386;2023-03-13T02:52:26;9.50;;;4.53;;
27209;SDS011;14721;42.668;23.386;2023-03-13T02:54:56;14.47;;;6.23;;
27209;SDS011;14721;42.668;23.386;2023-03-13T02:57:24;12.93;;;5.40;;
27209;SDS011;14721;42.668;23.386;2023-03-13T02:59:50;14.47;;;6.10;;
27209;SDS011;14721;42.668;23.386;2023-03-13T03:02:16;14.03;;;7.20;;
27209;SDS011;14721;42.668;23.386;2023-03-13T03:04:44;13.90;;;6.07;;
27209;SDS011;14721;42.668;23.386;2023-03-13T03:07:09;14.57;;;6.70;;
27209;SDS011;14721;42.668;23.386;2023-03-13T03:09:35;16.23;;;7.13;;
27209;SDS011;14721;42.668;23.386;2023-03-13T03:12:00;15.67;;;6.47;;
27209;SDS011;14721;42.668;23.386;2023-03-13T03:14:26;14.80;;;7.43;;
27209;SDS011;14721;42.668;23.386;2023-03-13T03:16:51;16.33;;;7.03;;
27209;SDS011;14721;42.668;23.386;2023-03-13T03:19:17;18.70;;;8.33;;
27209;SDS011;14721;42.668;23.386;2023-03-13T03:21:55;18.53;;;7.20;;
27209;SDS011;14721;42.668;23.386;2023-03-13T03:24:28;15.57;;;6.97;;
27209;SDS011;14721;42.668;23.386;2023-03-13T03:26:55;17.70;;;8.10;;
27209;SDS011;14721;42.668;23.386;2023-03-13T03:29:22;16.83;;;6.60;;
27209;SDS011;14721;42.668;23.386;2023-03-13T03:31:48;15.30;;;6.93;;
27209;SDS011;14721;42.668;23.386;2023-03-13T03:34:13;11.47;;;6.23;;
27209;SDS011;14721;42.668;23.386;2023-03-13T03:36:39;13.17;;;7.07;;
27209;SDS011;14721;42.668;23.386;2023-03-13T03:39:05;14.83;;;7.10;;
27209;SDS011;14721;42.668;23.386;2023-03-13T03:41:30;16.17;;;6.83;;
27209;SDS011;14721;42.668;23.386;2023-03-13T03:43:56;12.13;;;7.10;;
27209;SDS011;14721;42.668;23.386;2023-03-13T03:46:22;13.40;;;6.97;;
27209;SDS011;14721;42.668;23.386;2023-03-13T03:48:49;15.97;;;7.90;;
27209;SDS011;14721;42.668;23.386;2023-03-13T03:51:14;14.40;;;6.93;;
27209;SDS011;14721;42.668;23.386;2023-03-13T03:53:40;14.17;;;6.80;;
27209;SDS011;14721;42.668;23.386;2023-03-13T03:56:06;16.27;;;7.83;;
27209;SDS011;14721;42.668;23.386;2023-03-13T03:58:32;15.13;;;6.67;;
27209;SDS011;14721;42.668;23.386;2023-03-13T04:00:57;16.47;;;7.77;;
27209;SDS011;14721;42.668;23.386;2023-03-13T04:03:24;12.57;;;7.80;;
27209;SDS011;14721;42.668;23.386;2023-03-13T04:05:50;15.57;;;7.70;;
27209;SDS011;14721;42.668;23.386;2023-03-13T04:08:15;15.20;;;6.57;;
27209;SDS011;14721;42.668;23.386;2023-03-13T04:10:42;13.87;;;6.03;;
27209;SDS011;14721;42.668;23.386;2023-03-13T04:13:07;17.87;;;7.43;;
27209;SDS011;14721;42.668;23.386;2023-03-13T04:15:33;13.63;;;7.40;;
27209;SDS011;14721;42.668;23.386;2023-03-13T04:17:58;11.30;;;6.50;;
27209;SDS011;14721;42.668;23.386;2023-03-13T04:20:24;9.30;;;5.07;;
27209;SDS011;14721;42.668;23.386;2023-03-13T04:22:50;23.43;;;5.77;;
27209;SDS011;14721;42.668;23.386;2023-03-13T04:25:15;7.90;;;3.90;;
27209;SDS011;14721;42.668;23.386;2023-03-13T04:27:41;11.77;;;4.43;;
27209;SDS011;14721;42.668;23.386;2023-03-13T04:30:10;8.27;;;4.60;;
27209;SDS011;14721;42.668;23.386;2023-03-13T04:32:36;6.23;;;3.57;;
27209;SDS011;14721;42.668;23.386;2023-03-13T04:35:07;7.60;;;3.30;;
27209;SDS011;14721;42.668;23.386;2023-03-13T04:37:44;10.90;;;3.90;;
27209;SDS011;14721;42.668;23.386;2023-03-13T04:40:22;5.47;;;2.57;;
27209;SDS011;14721;42.668;23.386;2023-03-13T04:42:57;4.67;;;2.40;;
27209;SDS011;14721;42.668;23.386;2023-03-13T04:45:22;6.27;;;2.90;;
27209;SDS011;14721;42.668;23.386;2023-03-13T04:47:48;6.07;;;3.83;;
27209;SDS011;14721;42.668;23.386;2023-03-13T04:50:13;5.40;;;3.50;;
27209;SDS011;14721;42.668;23.386;2023-03-13T04:52:39;8.93;;;3.00;;
27209;SDS011;14721;42.668;23.386;2023-03-13T04:55:07;12.30;;;3.63;;
27209;SDS011;14721;42.668;23.386;2023-03-13T04:57:33;8.37;;;3.73;;
27209;SDS011;14721;42.668;23.386;2023-03-13T04:59:58;8.57;;;4.00;;
27209;SDS011;14721;42.668;23.386;2023-03-13T05:02:24;11.07;;;4.40;;
27209;SDS011;14721;42.668;23.386;2023-03-13T05:04:58;8.23;;;4.43;;
27209;SDS011;14721;42.668;23.386;2023-03-13T05:07:24;6.53;;;3.70;;
27209;SDS011;14721;42.668;23.386;2023-03-13T05:09:49;8.57;;;4.30;;
27209;SDS011;14721;42.668;23.386;2023-03-13T05:12:15;8.57;;;4.07;;
27209;SDS011;14721;42.668;23.386;2023-03-13T05:14:41;16.60;;;5.10;;
27209;SDS011;14721;42.668;23.386;2023-03-13T05:17:06;9.93;;;4.17;;
27209;SDS011;14721;42.668;23.386;2023-03-13T05:19:32;8.07;;;3.97;;
27209;SDS011;14721;42.668;23.386;2023-03-13T05:21:57;7.93;;;4.23;;
27209;SDS011;14721;42.668;23.386;2023-03-13T05:24:23;9.60;;;4.17;;
27209;SDS011;14721;42.668;23.386;2023-03-13T05:26:48;8.43;;;4.50;;
27209;SDS011;14721;42.668;23.386;2023-03-13T05:29:14;8.13;;;5.33;;
27209;SDS011;14721;42.668;23.386;2023-03-13T05:31:39;9.07;;;4.53;;
27209;SDS011;14721;42.668;23.386;2023-03-13T05:34:05;9.77;;;5.67;;
27209;SDS011;14721;42.668;23.386;2023-03-13T05:36:30;9.73;;;5.57;;
27209;SDS011;14721;42.668;23.386;2023-03-13T05:38:56;6.77;;;4.30;;
27209;SDS011;14721;42.668;23.386;2023-03-13T05:41:23;7.43;;;4.57;;
27209;SDS011;14721;42.668;23.386;2023-03-13T05:43:48;9.23;;;5.23;;
27209;SDS011;14721;42.668;23.386;2023-03-13T05:46:13;9.53;;;4.77;;
27209;SDS011;14721;42.668;23.386;2023-03-13T05:48:39;8.07;;;5.43;;
27209;SDS011;14721;42.668;23.386;2023-03-13T05:51:04;9.97;;;6.40;;
27209;SDS011;14721;42.668;23.386;2023-03-13T05:53:30;15.57;;;6.77;;
27209;SDS011;14721;42.668;23.386;2023-03-13T05:55:56;11.43;;;6.23;;
27209;SDS011;14721;42.668;23.386;2023-03-13T05:58:21;16.70;;;7.20;;
27209;SDS011;14721;42.668;23.386;2023-03-13T06:00:47;18.27;;;8.37;;
27209;SDS011;14721;42.668;23.386;2023-03-13T06:03:13;31.13;;;14.43;;
27209;SDS011;14721;42.668;23.386;2023-03-13T06:05:38;31.67;;;14.43;;
27209;SDS011;14721;42.668;23.386;2023-03-13T06:08:04;23.90;;;13.47;;
27209;SDS011;14721;42.668;23.386;2023-03-13T06:10:29;30.87;;;13.90;;
27209;SDS011;14721;42.668;23.386;2023-03-13T06:12:55;23.43;;;13.43;;
27209;SDS011;14721;42.668;23.386;2023-03-13T06:15:21;24.57;;;11.77;;
27209;SDS011;14721;42.668;23.386;2023-03-13T06:17:47;18.63;;;8.83;;
27209;SDS011;14721;42.668;23.386;2023-03-13T06:20:13;15.27;;;7.93;;
27209;SDS011;14721;42.668;23.386;2023-03-13T06:22:39;11.73;;;6.33;;
27209;SDS011;14721;42.668;23.386;2023-03-13T06:25:05;13.33;;;7.40;;
27209;SDS011;14721;42.668;23.386;2023-03-13T06:27:31;16.33;;;6.97;;
27209;SDS011;14721;42.668;23.386;2023-03-13T06:29:57;15.07;;;7.77;;
27209;SDS011;14721;42.668;23.386;2023-03-13T06:32:22;12.23;;;7.00;;
27209;SDS011;14721;42.668;23.386;2023-03-13T06:34:48;16.03;;;7.33;;
27209;SDS011;14721;42.668;23.386;2023-03-13T06:37:13;15.13;;;7.47;;
27209;SDS011;14721;42.668;23.386;2023-03-13T06:39:39;21.93;;;8.90;;
27209;SDS011;14721;42.668;23.386;2023-03-13T06:42:05;14.83;;;8.03;;
27209;SDS011;14721;42.668;23.386;2023-03-13T06:44:32;16.63;;;7.80;;
27209;SDS011;14721;42.668;23.386;2023-03-13T06:46:57;15.43;;;8.40;;
27209;SDS011;14721;42.668;23.386;2023-03-13T06:49:23;15.80;;;7.40;;
27209;SDS011;14721;42.668;23.386;2023-03-13T06:51:48;14.53;;;8.23;;
27209;SDS011;14721;42.668;23.386;2023-03-13T06:54:14;17.20;;;8.13;;
27209;SDS011;14721;42.668;23.386;2023-03-13T06:56:40;16.73;;;7.70;;
27209;SDS011;14721;42.668;23.386;2023-03-13T06:59:05;18.20;;;8.70;;
27209;SDS011;14721;42.668;23.386;2023-03-13T07:01:31;11.50;;;7.70;;
27209;SDS011;14721;42.668;23.386;2023-03-13T07:03:56;16.30;;;7.87;;
27209;SDS011;14721;42.668;23.386;2023-03-13T07:06:22;15.03;;;7.73;;
27209;SDS011;14721;42.668;23.386;2023-03-13T07:08:47;15.97;;;7.87;;
27209;SDS011;14721;42.668;23.386;2023-03-13T07:11:14;10.60;;;7.07;;
27209;SDS011;14721;42.668;23.386;2023-03-13T07:13:40;14.70;;;7.63;;
27209;SDS011;14721;42.668;23.386;2023-03-13T07:16:07;16.90;;;8.57;;
27209;SDS011;14721;42.668;23.386;2023-03-13T07:18:34;12.77;;;7.83;;
27209;SDS011;14721;42.668;23.386;2023-03-13T07:21:01;16.93;;;7.47;;
27209;SDS011;14721;42.668;23.386;2023-03-13T07:23:33;12.87;;;7.67;;
27209;SDS011;14721;42.668;23.386;2023-03-13T07:26:00;14.03;;;8.30;;
27209;SDS011;14721;42.668;23.386;2023-03-13T07:28:28;13.17;;;6.87;;
27209;SDS011;14721;42.668;23.386;2023-03-13T07:31:17;13.03;;;7.80;;
27209;SDS011;14721;42.668;23.386;2023-03-13T07:33:42;16.10;;;8.20;;
27209;SDS011;14721;42.668;23.386;2023-03-13T07:36:09;17.30;;;8.73;;
27209;SDS011;14721;42.668;23.386;2023-03-13T07:38:35;13.03;;;7.47;;
27209;SDS011;14721;42.668;23.386;2023-03-13T07:41:01;16.97;;;8.40;;
27209;SDS011;14721;42.668;23.386;2023-03-13T07:43:27;16.20;;;9.17;;
27209;SDS011;14721;42.668;23.386;2023-03-13T07:45:57;15.93;;;7.67;;
27209;SDS011;14721;42.668;23.386;2023-03-13T07:48:23;15.60;;;8.60;;
27209;SDS011;14721;42.668;23.386;2023-03-13T07:50:50;17.07;;;9.97;;
27209;SDS011;14721;42.668;23.386;2023-03-13T07:53:16;14.97;;;8.00;;
27209;SDS011;14721;42.668;23.386;2023-03-13T07:56:18;13.17;;;6.63;;
27209;SDS011;14721;42.668;23.386;2023-03-13T07:58:38;11.77;;;7.63;;
27209;SDS011;14721;42.668;23.386;2023-03-13T08:01:09;12.43;;;6.83;;
27209;SDS011;14721;42.668;23.386;2023-03-13T08:03:40;11.60;;;6.77;;
27209;SDS011;14721;42.668;23.386;2023-03-13T08:06:07;14.70;;;7.50;;
27209;SDS011;14721;42.668;23.386;2023-03-13T08:08:34;13.97;;;7.43;;
27209;SDS011;14721;42.668;23.386;2023-03-13T08:11:05;12.97;;;8.07;;
27209;SDS011;14721;42.668;23.386;2023-03-13T08:13:34;11.50;;;6.73;;
27209;SDS011;14721;42.668;23.386;2023-03-13T08:16:08;14.50;;;7.33;;
27209;SDS011;14721;42.668;23.386;2023-03-13T08:18:43;14.27;;;7.40;;
27209;SDS011;14721;42.668;23.386;2023-03-13T08:21:10;11.83;;;7.23;;
27209;SDS011;14721;42.668;23.386;2023-03-13T08:23:41;14.87;;;8.37;;
27209;SDS011;14721;42.668;23.386;2023-03-13T08:26:08;13.53;;;6.53;;
27209;SDS011;14721;42.668;23.386;2023-03-13T08:28:36;13.53;;;6.97;;
27209;SDS011;14721;42.668;23.386;2023-03-13T08:31:06;13.80;;;6.80;;
27209;SDS011;14721;42.668;23.386;2023-03-13T08:33:40;12.73;;;7.50;;
27209;SDS011;14721;42.668;23.386;2023-03-13T08:36:14;11.40;;;5.60;;
27209;SDS011;14721;42.668;23.386;2023-03-13T08:38:42;15.17;;;7.00;;
27209;SDS011;14721;42.668;23.386;2023-03-13T08:41:11;9.43;;;6.73;;
27209;SDS011;14721;42.668;23.386;2023-03-13T08:43:41;9.37;;;6.10;;
27209;SDS011;14721;42.668;23.386;2023-03-13T08:46:07;9.63;;;5.87;;
27209;SDS011;14721;42.668;23.386;2023-03-13T08:48:32;15.40;;;7.83;;
27209;SDS011;14721;42.668;23.386;2023-03-13T08:50:59;14.50;;;7.47;;
27209;SDS011;14721;42.668;23.386;2023-03-13T08:53:25;13.47;;;8.00;;
27209;SDS011;14721;42.668;23.386;2023-03-13T08:55:51;16.30;;;7.63;;
27209;SDS011;14721;42.668;23.386;2023-03-13T08:58:18;13.97;;;7.10;;
27209;SDS011;14721;42.668;23.386;2023-03-13T09:00:43;12.73;;;7.30;;
27209;SDS011;14721;42.668;23.386;2023-03-13T09:03:09;14.57;;;7.50;;
27209;SDS011;14721;42.668;23.386;2023-03-13T09:05:36;11.30;;;6.73;;
27209;SDS011;14721;42.668;23.386;2023-03-13T09:08:04;13.33;;;6.80;;
27209;SDS011;14721;42.668;23.386;2023-03-13T09:10:32;15.83;;;7.93;;
27209;SDS011;14721;42.668;23.386;2023-03-13T09:12:58;13.23;;;7.40;;
27209;SDS011;14721;42.668;23.386;2023-03-13T09:15:24;11.87;;;6.70;;
27209;SDS011;14721;42.668;23.386;2023-03-13T09:17:49;12.40;;;7.23;;
27209;SDS011;14721;42.668;23.386;2023-03-13T09:20:15;11.23;;;6.37;;
27209;SDS011;14721;42.668;23.386;2023-03-13T09:22:43;11.47;;;6.47;;
27209;SDS011;14721;42.668;23.386;2023-03-13T09:25:09;14.50;;;7.20;;
27209;SDS011;14721;42.668;23.386;2023-03-13T09:27:35;13.30;;;6.60;;
27209;SDS011;14721;42.668;23.386;2023-03-13T09:30:00;11.83;;;6.40;;
27209;SDS011;14721;42.668;23.386;2023-03-13T09:32:26;11.40;;;6.07;;
27209;SDS011;14721;42.668;23.386;2023-03-13T09:34:51;12.70;;;6.50;;
27209;SDS011;14721;42.668;23.386;2023-03-13T09:37:17;15.07;;;6.53;;
27209;SDS011;14721;42.668;23.386;2023-03-13T09:39:42;14.67;;;7.03;;
27209;SDS011;14721;42.668;23.386;2023-03-13T09:42:17;9.97;;;6.03;;
27209;SDS011;14721;42.668;23.386;2023-03-13T09:44:54;12.17;;;6.73;;
27209;SDS011;14721;42.668;23.386;2023-03-13T09:50:17;12.37;;;6.27;;
27209;SDS011;14721;42.668;23.386;2023-03-13T09:52:50;26.40;;;6.30;;
27209;SDS011;14721;42.668;23.386;2023-03-13T09:55:25;10.97;;;6.47;;
27209;SDS011;14721;42.668;23.386;2023-03-13T09:57:55;12.10;;;6.07;;
27209;SDS011;14721;42.668;23.386;2023-03-13T10:00:28;12.10;;;6.90;;
27209;SDS011;14721;42.668;23.386;2023-03-13T10:05:35;13.57;;;6.90;;
27209;SDS011;14721;42.668;23.386;2023-03-13T10:08:16;12.57;;;6.77;;
27209;SDS011;14721;42.668;23.386;2023-03-13T10:13:38;18.47;;;7.60;;
27209;SDS011;14721;42.668;23.386;2023-03-13T10:16:10;10.07;;;5.87;;
27209;SDS011;14721;42.668;23.386;2023-03-13T10:18:46;12.33;;;6.53;;
27209;SDS011;14721;42.668;23.386;2023-03-13T10:21:18;12.40;;;7.03;;
27209;SDS011;14721;42.668;23.386;2023-03-13T10:23:56;13.00;;;7.47;;
27209;SDS011;14721;42.668;23.386;2023-03-13T10:26:28;14.07;;;7.47;;
27209;SDS011;14721;42.668;23.386;2023-03-13T10:28:56;12.43;;;7.33;;
27209;SDS011;14721;42.668;23.386;2023-03-13T10:31:31;14.83;;;8.07;;
27209;SDS011;14721;42.668;23.386;2023-03-13T10:34:10;13.30;;;7.23;;
27209;SDS011;14721;42.668;23.386;2023-03-13T10:36:47;15.00;;;7.80;;
27209;SDS011;14721;42.668;23.386;2023-03-13T10:39:15;15.30;;;7.30;;
27209;SDS011;14721;42.668;23.386;2023-03-13T10:41:46;10.20;;;6.57;;
27209;SDS011;14721;42.668;23.386;2023-03-13T10:44:17;12.03;;;7.03;;
27209;SDS011;14721;42.668;23.386;2023-03-13T10:46:47;11.43;;;7.17;;
27209;SDS011;14721;42.668;23.386;2023-03-13T10:51:47;10.23;;;6.50;;
27209;SDS011;14721;42.668;23.386;2023-03-13T10:56:48;9.93;;;6.10;;
27209;SDS011;14721;42.668;23.386;2023-03-13T10:59:20;10.00;;;5.70;;
27209;SDS011;14721;42.668;23.386;2023-03-13T11:01:51;13.07;;;6.40;;
27209;SDS011;14721;42.668;23.386;2023-03-13T11:04:32;10.23;;;6.23;;
27209;SDS011;14721;42.668;23.386;2023-03-13T11:07:43;12.67;;;6.33;;
27209;SDS011;14721;42.668;23.386;2023-03-13T11:09:56;14.00;;;6.90;;
27209;SDS011;14721;42.668;23.386;2023-03-13T11:12:23;15.60;;;6.17;;
27209;SDS011;14721;42.668;23.386;2023-03-13T11:14:55;11.23;;;6.10;;
27209;SDS011;14721;42.668;23.386;2023-03-13T11:17:29;16.70;;;6.80;;
27209;SDS011;14721;42.668;23.386;2023-03-13T11:22:52;11.50;;;5.70;;
27209;SDS011;14721;42.668;23.386;2023-03-13T11:28:08;13.60;;;6.10;;
27209;SDS011;14721;42.668;23.386;2023-03-13T11:38:38;14.03;;;6.03;;
27209;SDS011;14721;42.668;23.386;2023-03-13T11:44:24;9.47;;;5.63;;
27209;SDS011;14721;42.668;23.386;2023-03-13T11:49:43;10.17;;;5.83;;
27209;SDS011;14721;42.668;23.386;2023-03-13T11:57:27;11.43;;;6.20;;
27209;SDS011;14721;42.668;23.386;2023-03-13T12:05:19;12.90;;;5.80;;
27209;SDS011;14721;42.668;23.386;2023-03-13T12:10:28;17.17;;;5.63;;
27209;SDS011;14721;42.668;23.386;2023-03-13T12:13:11;9.73;;;5.47;;
27209;SDS011;14721;42.668;23.386;2023-03-13T12:15:40;10.57;;;6.07;;
27209;SDS011;14721;42.668;23.386;2023-03-13T12:18:22;8.20;;;5.50;;
27209;SDS011;14721;42.668;23.386;2023-03-13T12:20:55;8.03;;;5.57;;
27209;SDS011;14721;42.668;23.386;2023-03-13T12:23:39;8.83;;;5.33;;
27209;SDS011;14721;42.668;23.386;2023-03-13T12:26:14;9.13;;;4.97;;
27209;SDS011;14721;42.668;23.386;2023-03-13T12:31:33;10.43;;;5.00;;
27209;SDS011;14721;42.668;23.386;2023-03-13T12:39:38;10.83;;;5.70;;
27209;SDS011;14721;42.668;23.386;2023-03-13T12:44:42;11.70;;;5.33;;
27209;SDS011;14721;42.668;23.386;2023-03-13T12:47:11;12.00;;;5.53;;
27209;SDS011;14721;42.668;23.386;2023-03-13T13:01:02;10.70;;;5.57;;
27209;SDS011;14721;42.668;23.386;2023-03-13T13:03:33;11.83;;;4.87;;
27209;SDS011;14721;42.668;23.386;2023-03-13T13:06:12;9.10;;;5.27;;
27209;SDS011;14721;42.668;23.386;2023-03-13T13:08:40;10.03;;;6.13;;
27209;SDS011;14721;42.668;23.386;2023-03-13T13:17:02;16.50;;;10.87;;
27209;SDS011;14721;42.668;23.386;2023-03-13T13:30:27;14.87;;;8.60;;
27209;SDS011;14721;42.668;23.386;2023-03-13T13:32:54;14.33;;;8.50;;
27209;SDS011;14721;42.668;23.386;2023-03-13T13:35:44;15.07;;;8.03;;
27209;SDS011;14721;42.668;23.386;2023-03-13T13:43:39;13.93;;;6.93;;
27209;SDS011;14721;42.668;23.386;2023-03-13T13:51:34;14.20;;;6.27;;
27209;SDS011;14721;42.668;23.386;2023-03-13T13:54:02;12.40;;;6.63;;
27209;SDS011;14721;42.668;23.386;2023-03-13T13:56:44;20.23;;;8.23;;
27209;SDS011;14721;42.668;23.386;2023-03-13T14:04:37;12.80;;;7.50;;
27209;SDS011;14721;42.668;23.386;2023-03-13T14:07:09;13.70;;;7.37;;
27209;SDS011;14721;42.668;23.386;2023-03-13T14:09:47;15.03;;;7.43;;
27209;SDS011;14721;42.668;23.386;2023-03-13T14:12:25;20.33;;;8.10;;
27209;SDS011;14721;42.668;23.386;2023-03-13T14:17:37;16.73;;;6.07;;
27209;SDS011;14721;42.668;23.386;2023-03-13T14:20:05;11.87;;;6.50;;
27209;SDS011;14721;42.668;23.386;2023-03-13T14:22:51;12.93;;;7.33;;
27209;SDS011;14721;42.668;23.386;2023-03-13T14:25:18;16.80;;;7.57;;
27209;SDS011;14721;42.668;23.386;2023-03-13T14:27:45;15.73;;;7.90;;
27209;SDS011;14721;42.668;23.386;2023-03-13T14:30:14;14.97;;;7.97;;
27209;SDS011;14721;42.668;23.386;2023-03-13T14:32:42;16.80;;;8.40;;
27209;SDS011;14721;42.668;23.386;2023-03-13T14:35:08;19.50;;;7.93;;
27209;SDS011;14721;42.668;23.386;2023-03-13T14:37:36;17.13;;;7.90;;
27209;SDS011;14721;42.668;23.386;2023-03-13T14:42:42;14.20;;;7.50;;
27209;SDS011;14721;42.668;23.386;2023-03-13T14:45:11;15.30;;;7.63;;
27209;SDS011;14721;42.668;23.386;2023-03-13T14:47:45;13.03;;;7.63;;
27209;SDS011;14721;42.668;23.386;2023-03-13T14:50:11;20.30;;;7.40;;
27209;SDS011;14721;42.668;23.386;2023-03-13T14:52:47;11.73;;;6.07;;
27209;SDS011;14721;42.668;23.386;2023-03-13T14:55:27;15.80;;;8.37;;
27209;SDS011;14721;42.668;23.386;2023-03-13T14:58:04;13.10;;;6.70;;
27209;SDS011;14721;42.668;23.386;2023-03-13T15:00:49;13.90;;;7.13;;
27209;SDS011;14721;42.668;23.386;2023-03-13T15:06:04;14.57;;;6.23;;
27209;SDS011;14721;42.668;23.386;2023-03-13T15:08:37;12.53;;;6.97;;
27209;SDS011;14721;42.668;23.386;2023-03-13T15:13:49;11.57;;;5.97;;
27209;SDS011;14721;42.668;23.386;2023-03-13T15:16:16;11.60;;;5.60;;
27209;SDS011;14721;42.668;23.386;2023-03-13T15:18:44;13.17;;;6.60;;
27209;SDS011;14721;42.668;23.386;2023-03-13T15:23:40;12.50;;;6.57;;
27209;SDS011;14721;42.668;23.386;2023-03-13T15:26:11;11.30;;;7.10;;
27209;SDS011;14721;42.668;23.386;2023-03-13T15:28:36;16.70;;;9.37;;
27209;SDS011;14721;42.668;23.386;2023-03-13T15:31:04;13.00;;;6.33;;
27209;SDS011;14721;42.668;23.386;2023-03-13T15:33:29;19.73;;;7.17;;
27209;SDS011;14721;42.668;23.386;2023-03-13T15:35:55;13.40;;;6.53;;
27209;SDS011;14721;42.668;23.386;2023-03-13T15:38:22;11.93;;;6.60;;
27209;SDS011;14721;42.668;23.386;2023-03-13T15:40:50;20.93;;;7.77;;
27209;SDS011;14721;42.668;23.386;2023-03-13T15:43:16;14.53;;;7.90;;
27209;SDS011;14721;42.668;23.386;2023-03-13T15:45:43;15.83;;;8.77;;
27209;SDS011;14721;42.668;23.386;2023-03-13T15:48:19;16.03;;;8.17;;
27209;SDS011;14721;42.668;23.386;2023-03-13T15:50:50;18.03;;;9.03;;
27209;SDS011;14721;42.668;23.386;2023-03-13T15:53:21;13.07;;;7.80;;
27209;SDS011;14721;42.668;23.386;2023-03-13T15:55:48;18.60;;;8.67;;
27209;SDS011;14721;42.668;23.386;2023-03-13T15:58:15;18.23;;;7.60;;
27209;SDS011;14721;42.668;23.386;2023-03-13T16:00:42;17.73;;;8.83;;
27209;SDS011;14721;42.668;23.386;2023-03-13T16:03:13;17.07;;;7.40;;
27209;SDS011;14721;42.668;23.386;2023-03-13T16:05:41;14.50;;;7.13;;
27209;SDS011;14721;42.668;23.386;2023-03-13T16:08:10;17.80;;;7.70;;
27209;SDS011;14721;42.668;23.386;2023-03-13T16:10:43;15.13;;;7.67;;
27209;SDS011;14721;42.668;23.386;2023-03-13T16:13:08;16.00;;;8.70;;
27209;SDS011;14721;42.668;23.386;2023-03-13T16:15:34;13.67;;;7.57;;
27209;SDS011;14721;42.668;23.386;2023-03-13T16:18:00;20.27;;;8.30;;
27209;SDS011;14721;42.668;23.386;2023-03-13T16:20:26;19.33;;;7.97;;
27209;SDS011;14721;42.668;23.386;2023-03-13T16:22:53;17.63;;;8.03;;
27209;SDS011;14721;42.668;23.386;2023-03-13T16:25:19;15.03;;;7.97;;
27209;SDS011;14721;42.668;23.386;2023-03-13T16:27:45;12.93;;;6.93;;
27209;SDS011;14721;42.668;23.386;2023-03-13T16:32:57;17.07;;;7.97;;
27209;SDS011;14721;42.668;23.386;2023-03-13T16:35:24;13.40;;;7.77;;
27209;SDS011;14721;42.668;23.386;2023-03-13T16:37:52;17.83;;;8.73;;
27209;SDS011;14721;42.668;23.386;2023-03-13T16:40:19;18.87;;;8.87;;
27209;SDS011;14721;42.668;23.386;2023-03-13T16:42:47;18.40;;;8.70;;